Time;durP1;ratioP1;P1;durP2;ratioP2;P2;SDS_P1;SDS_P2;PMS_P1;PMS_P2;Temp;Humidity;BMP_temperature;BMP_pressure;BME280_temperature;BME280_humidity;BME280_pressure;Samples;Min_cycle;Max_cycle;Signal;HPM_P1;HPM_P2
2022/06/14 00:00:54;;;;;;;;;;;;;;;;;;5057186;28;20303;-28
2022/06/14 00:03:20;;;;;;;;;;;;;;;;;;5039424;28;19921;-25
2022/06/14 00:05:46;;;;;;;;;;;;;;;;;;5057024;28;19920;-27
2022/06/14 00:08:12;;;;;;;;;;;;;;;;;;5056984;28;20355;-29
2022/06/14 00:10:38;;;;;;;;;;;;;;;;;;5057260;28;19924;-28
2022/06/14 00:13:04;;;;;;;;;;;;;;;;;;5056897;28;19913;-26
2022/06/14 00:15:30;;;;;;;;;;;;;;;;;;5056957;28;20351;-27
2022/06/14 00:17:56;;;;;;;;;;;;;;;;;;5056779;28;19995;-28
2022/06/14 00:20:22;;;;;;;;;;;;;;;;;;5057049;28;19909;-24
2022/06/14 00:22:48;;;;;;;;;;;;;;;;;;5056646;28;19966;-28
2022/06/14 00:25:14;;;;;;;;;;;;;;;;;;5056679;28;19997;-26
2022/06/14 00:27:40;;;;;;;;;;;;;;;;;;5056616;28;19913;-26
2022/06/14 00:30:06;;;;;;;;;;;;;;;;;;5056570;28;19999;-27
2022/06/14 00:32:32;;;;;;;;;;;;;;;;;;5056532;28;19913;-28
2022/06/14 00:34:58;;;;;;;;;;;;;;;;;;5056506;28;19920;-27
2022/06/14 00:37:24;;;;;;;;;;;;;;;;;;5057010;28;19974;-28
2022/06/14 00:39:50;;;;;;;;;;;;;;;;;;5056511;28;19945;-31
2022/06/14 00:42:16;;;;;;;;;;;;;;;;;;5056287;28;20348;-29
2022/06/14 00:44:42;;;;;;;;;;;;;;;;;;5056586;28;19909;-30
2022/06/14 00:47:08;;;;;;;;;;;;;;;;;;5038532;28;20305;-32
2022/06/14 00:49:34;;;;;;;;;;;;;;;;;;5056272;28;19973;-27
2022/06/14 00:52:00;;;;;;;;;;;;;;;;;;5055127;28;19924;-23
2022/06/14 00:54:27;;;;;;;;;;;;;;;;;;5056355;28;19912;-28
2022/06/14 00:56:53;;;;;;;;;;;;;;;;;;5055958;28;19935;-33
2022/06/14 00:59:19;;;;;;;;;;;;;;;;;;5038237;28;19916;-31
2022/06/14 01:01:45;;;;;;;;;;;;;;;;;;5056204;28;20035;-28
2022/06/14 01:04:11;;;;;;;;;;;;;;;;;;5055957;28;19916;-31
2022/06/14 01:06:37;;;;;;;;;;;;;;;;;;5055873;28;19914;-26
2022/06/14 01:09:03;;;;;;;;;;;;;;;;;;5056003;28;20069;-32
2022/06/14 01:11:29;;;;;;;;;;;;;;;;;;5056054;28;20009;-29
2022/06/14 01:13:55;;;;;;;;;;;;;;;;;;5056054;28;20224;-31
2022/06/14 01:16:21;;;;;;;;;;;;;;;;;;5055739;28;19920;-30
2022/06/14 01:18:47;;;;;;;;;;;;;;;;;;5055579;28;20259;-32
2022/06/14 01:21:15;;;;;;;;;;;;;;;;;;5055594;28;20266;-27
2022/06/14 01:23:41;;;;;;;;;;;;;;;;;;5055595;28;19913;-26
2022/06/14 01:26:07;;;;;;;;;;;;;;;;;;5055537;28;19920;-29
2022/06/14 01:28:33;;;;;;;;;;;;;;;;;;5055677;28;19916;-28
2022/06/14 01:30:59;;;;;;;;;;;;;;;;;;5055407;28;19970;-26
2022/06/14 01:33:25;;;;;;;;;;;;;;;;;;5055365;28;19913;-30
2022/06/14 01:35:51;;;;;;;;;;;;;;;;;;5055364;28;19909;-33
2022/06/14 01:38:17;;;;;;;;;;;;;;;;;;5055331;28;19913;-34
2022/06/14 01:40:43;;;;;;;;;;;;;;;;;;5055528;28;19916;-28
2022/06/14 01:43:09;;;;;;;;;;;;;;;;;;5055191;28;20285;-28
2022/06/14 01:45:35;;;;;;;;;;;;;;;;;;5055440;28;20260;-26
2022/06/14 01:48:01;;;;;;;;;;;;;;;;;;5055065;28;19913;-28
2022/06/14 01:53:11;;;;;;;;;;;;;;;;;;5055370;28;20347;-27
2022/06/14 01:55:37;;;;;;;;;;;;;;;;;;5055311;28;19928;-31
2022/06/14 01:58:03;;;;;;;;;;;;;;;;;;5054709;28;20353;-30
2022/06/14 02:00:29;;;;;;;;;;;;;;;;;;5055216;28;19948;-26
2022/06/14 02:04:37;;;;;;;;;;;;;;;;;;5054632;28;19927;-33
2022/06/14 02:05:41;;;;;;;;;;;;;;;;;;5054868;28;20332;-26
2022/06/14 02:08:07;;;;;;;;;;;;;;;;;;5055023;28;19917;-27
2022/06/14 02:10:33;;;;;;;;;;;;;;;;;;5054795;28;19982;-29
2022/06/14 02:13:00;;;;;;;;;;;;;;;;;;5054802;28;19913;-31
2022/06/14 02:15:26;;;;;;;;;;;;;;;;;;5054673;28;20236;-29
2022/06/14 02:17:52;;;;;;;;;;;;;;;;;;5054810;28;19913;-30
2022/06/14 02:20:18;;;;;;;;;;;;;;;;;;5054678;28;20402;-28
2022/06/14 02:22:44;;;;;;;;;;;;;;;;;;5054757;28;19917;-26
2022/06/14 02:25:10;;;;;;;;;;;;;;;;;;5054598;28;20430;-28
2022/06/14 02:27:35;;;;;;;;;;;;;;;;;;5036853;28;19920;-26
2022/06/14 02:30:01;;;;;;;;;;;;;;;;;;5054521;28;19920;-33
2022/06/14 02:32:27;;;;;;;;;;;;;;;;;;5054445;28;19966;-29
2022/06/14 02:34:53;;;;;;;;;;;;;;;;;;5054771;28;20258;-25
2022/06/14 02:37:19;;;;;;;;;;;;;;;;;;5036866;28;20007;-28
2022/06/14 02:39:45;;;;;;;;;;;;;;;;;;5054752;28;19913;-26
2022/06/14 02:42:11;;;;;;;;;;;;;;;;;;5054577;28;19974;-31
2022/06/14 02:44:37;;;;;;;;;;;;;;;;;;5054700;28;20284;-28
2022/06/14 02:47:03;;;;;;;;;;;;;;;;;;5054564;28;20409;-29
2022/06/14 02:49:29;;;;;;;;;;;;;;;;;;5054864;28;19935;-27
2022/06/14 02:51:55;;;;;;;;;;;;;;;;;;5054343;28;20001;-29
2022/06/14 02:54:21;;;;;;;;;;;;;;;;;;5054320;28;19909;-25
2022/06/14 02:56:47;;;;;;;;;;;;;;;;;;5054204;28;19920;-27
2022/06/14 02:59:13;;;;;;;;;;;;;;;;;;5054151;28;19973;-28
2022/06/14 03:01:42;;;;;;;;;;;;;;;;;;5054131;28;19921;-31
2022/06/14 03:04:08;;;;;;;;;;;;;;;;;;5054438;28;19947;-26
2022/06/14 03:06:34;;;;;;;;;;;;;;;;;;5054486;28;19923;-31
2022/06/14 03:09:00;;;;;;;;;;;;;;;;;;5054054;28;19909;-34
2022/06/14 03:11:26;;;;;;;;;;;;;;;;;;5054357;28;19913;-27
2022/06/14 03:13:52;;;;;;;;;;;;;;;;;;5054135;28;19916;-29
2022/06/14 03:16:19;;;;;;;;;;;;;;;;;;5040233;28;20011;-27
2022/06/14 03:18:45;;;;;;;;;;;;;;;;;;5058005;28;20262;-28
2022/06/14 03:21:11;;;;;;;;;;;;;;;;;;5058017;28;19999;-32
2022/06/14 03:23:37;;;;;;;;;;;;;;;;;;5057847;28;20003;-32
2022/06/14 03:26:03;;;;;;;;;;;;;;;;;;5057780;28;19999;-26
2022/06/14 03:28:29;;;;;;;;;;;;;;;;;;5057873;28;19919;-30
2022/06/14 03:30:55;;;;;;;;;;;;;;;;;;5057714;28;19909;-26
2022/06/14 03:33:24;;;;;;;;;;;;;;;;;;5057669;28;19913;-28
2022/06/14 03:35:50;;;;;;;;;;;;;;;;;;5057498;28;19995;-31
2022/06/14 03:38:16;;;;;;;;;;;;;;;;;;5057648;28;20252;-26
2022/06/14 03:40:43;;;;;;;;;;;;;;;;;;5057490;28;19909;-30
2022/06/14 03:43:09;;;;;;;;;;;;;;;;;;5057263;28;20003;-32
2022/06/14 03:45:35;;;;;;;;;;;;;;;;;;5039651;28;19944;-33
2022/06/14 03:48:01;;;;;;;;;;;;;;;;;;5057200;28;19913;-26
2022/06/14 03:50:27;;;;;;;;;;;;;;;;;;5057146;28;19909;-30
2022/06/14 03:52:53;;;;;;;;;;;;;;;;;;5057414;28;19909;-26
2022/06/14 03:55:19;;;;;;;;;;;;;;;;;;5057271;28;19913;-33
2022/06/14 03:57:45;;;;;;;;;;;;;;;;;;5056762;28;19921;-25
2022/06/14 04:00:11;;;;;;;;;;;;;;;;;;5057148;28;19917;-27
2022/06/14 04:02:56;;;;;;;;;;;;;;;;;;5057131;28;20232;-27
2022/06/14 04:05:22;;;;;;;;;;;;;;;;;;5057434;28;20302;-28
2022/06/14 04:07:48;;;;;;;;;;;;;;;;;;5057016;28;19912;-28
2022/06/14 04:10:14;;;;;;;;;;;;;;;;;;5057183;28;20022;-30
2022/06/14 04:12:40;;;;;;;;;;;;;;;;;;5056716;28;19912;-31
2022/06/14 04:15:06;;;;;;;;;;;;;;;;;;5056171;28;19916;-31
2022/06/14 04:17:32;;;;;;;;;;;;;;;;;;5056132;28;19921;-28
2022/06/14 04:19:58;;;;;;;;;;;;;;;;;;5056213;28;19938;-26
2022/06/14 04:22:24;;;;;;;;;;;;;;;;;;5038506;28;19956;-30
2022/06/14 04:24:50;;;;;;;;;;;;;;;;;;5056282;28;19920;-28
2022/06/14 04:27:16;;;;;;;;;;;;;;;;;;5055885;28;19938;-28
2022/06/14 04:29:42;;;;;;;;;;;;;;;;;;5056188;28;20021;-29
2022/06/14 04:32:08;;;;;;;;;;;;;;;;;;5056257;28;19917;-32
2022/06/14 04:34:34;;;;;;;;;;;;;;;;;;5056129;28;19940;-26
2022/06/14 04:37:00;;;;;;;;;;;;;;;;;;5056050;28;19937;-29
2022/06/14 04:39:26;;;;;;;;;;;;;;;;;;5056169;28;19908;-28
2022/06/14 04:41:52;;;;;;;;;;;;;;;;;;5056301;28;20374;-29
2022/06/14 04:44:18;;;;;;;;;;;;;;;;;;5056111;28;19962;-29
2022/06/14 04:46:44;;;;;;;;;;;;;;;;;;5056309;28;19909;-29
2022/06/14 04:49:10;;;;;;;;;;;;;;;;;;5055939;28;19959;-26
2022/06/14 04:51:36;;;;;;;;;;;;;;;;;;5038070;28;19917;-26
2022/06/14 04:54:04;;;;;;;;;;;;;;;;;;5057035;28;19909;-26
2022/06/14 04:56:32;;;;;;;;;;;;;;;;;;5058004;28;19981;-28
2022/06/14 04:58:59;;;;;;;;;;;;;;;;;;5057116;28;19921;-25
2022/06/14 05:01:26;;;;;;;;;;;;;;;;;;5057885;28;19935;-30
2022/06/14 05:03:55;;;;;;;;;;;;;;;;;;5040255;28;19913;-28
2022/06/14 05:06:22;;;;;;;;;;;;;;;;;;5057075;28;19949;-25
2022/06/14 05:08:49;;;;;;;;;;;;;;;;;;5057255;28;19951;-25
2022/06/14 05:11:18;;;;;;;;;;;;;;;;;;5057435;28;19913;-26
2022/06/14 05:13:46;;;;;;;;;;;;;;;;;;5057208;28;19913;-26
2022/06/14 05:16:12;;;;;;;;;;;;;;;;;;5056093;28;19983;-28
2022/06/14 05:18:39;;;;;;;;;;;;;;;;;;5055150;28;20281;-28
2022/06/14 05:21:05;;;;;;;;;;;;;;;;;;5055090;28;19927;-31
2022/06/14 05:23:31;;;;;;;;;;;;;;;;;;5055240;28;19928;-27
2022/06/14 05:25:57;;;;;;;;;;;;;;;;;;5037553;28;19909;-28
2022/06/14 05:28:23;;;;;;;;;;;;;;;;;;5055066;28;19913;-26
2022/06/14 05:30:49;;;;;;;;;;;;;;;;;;5054929;28;19923;-30
2022/06/14 05:33:16;;;;;;;;;;;;;;;;;;5054536;28;20058;-29
2022/06/14 05:35:42;;;;;;;;;;;;;;;;;;5055590;28;19912;-29
2022/06/14 05:38:10;;;;;;;;;;;;;;;;;;5038446;28;19923;-26
2022/06/14 05:40:38;;;;;;;;;;;;;;;;;;5039385;28;19909;-25
2022/06/14 05:43:06;;;;;;;;;;;;;;;;;;5057094;28;20355;-25
2022/06/14 05:45:34;;;;;;;;;;;;;;;;;;5039553;28;19920;-27
2022/06/14 05:48:01;;;;;;;;;;;;;;;;;;5039540;28;19924;-26
2022/06/14 05:50:27;;;;;;;;;;;;;;;;;;5038808;28;20003;-31
2022/06/14 05:52:53;;;;;;;;;;;;;;;;;;5054532;28;19913;-28
2022/06/14 05:55:20;;;;;;;;;;;;;;;;;;5037028;28;19948;-33
2022/06/14 05:57:47;;;;;;;;;;;;;;;;;;5036738;28;19913;-31
2022/06/14 06:00:13;;;;;;;;;;;;;;;;;;5036695;28;20344;-31
2022/06/14 06:02:39;;;;;;;;;;;;;;;;;;5054140;28;19920;-30
2022/06/14 06:05:05;;;;;;;;;;;;;;;;;;5054437;28;19909;-31
2022/06/14 06:07:31;;;;;;;;;;;;;;;;;;5054394;28;19912;-30
2022/06/14 06:09:57;;;;;;;;;;;;;;;;;;5053935;28;20290;-27
2022/06/14 06:12:23;;;;;;;;;;;;;;;;;;5053265;28;19920;-28
2022/06/14 06:14:50;;;;;;;;;;;;;;;;;;5035487;28;20021;-28
2022/06/14 06:17:16;;;;;;;;;;;;;;;;;;5053092;28;19912;-26
2022/06/14 06:19:42;;;;;;;;;;;;;;;;;;5053154;28;19946;-30
2022/06/14 06:22:08;;;;;;;;;;;;;;;;;;5053018;28;19920;-30
2022/06/14 06:24:34;;;;;;;;;;;;;;;;;;5053369;28;19913;-29
2022/06/14 06:27:00;;;;;;;;;;;;;;;;;;5053280;28;19935;-27
2022/06/14 06:29:27;;;;;;;;;;;;;;;;;;5035389;28;19924;-26
2022/06/14 06:31:53;;;;;;;;;;;;;;;;;;5053164;28;19916;-27
2022/06/14 06:34:19;;;;;;;;;;;;;;;;;;5053095;28;20262;-31
2022/06/14 06:36:45;;;;;;;;;;;;;;;;;;5053019;28;19924;-28
2022/06/14 06:39:12;;;;;;;;;;;;;;;;;;5053550;28;19917;-27
2022/06/14 06:41:50;;;;;;;;;;;;;;;;;;5036304;28;19917;-30
2022/06/14 06:44:16;;;;;;;;;;;;;;;;;;5054142;28;19973;-27
2022/06/14 06:46:44;;;;;;;;;;;;;;;;;;5053728;28;20295;-27
2022/06/14 06:49:12;;;;;;;;;;;;;;;;;;5054102;28;20003;-28
2022/06/14 06:51:38;;;;;;;;;;;;;;;;;;5058527;28;20374;-26
2022/06/14 07:16:49;;;;;;;;;;;;;;;;;;5059703;28;19931;-23
2022/06/14 07:19:20;;;;;;;;;;;;;;;;;;5042546;28;20357;-23
2022/06/14 07:22:02;;;;;;;;;;;;;;;;;;5043308;28;19917;-23
2022/06/14 07:24:34;;;;;;;;;;;;;;;;;;5059995;28;19944;-23
2022/06/14 07:27:03;;;;;;;;;;;;;;;;;;5042199;28;19974;-23
2022/06/14 07:29:32;;;;;;;;;;;;;;;;;;5042037;28;19912;-23
2022/06/14 07:32:06;;;;;;;;;;;;;;;;;;5060565;28;19905;-23
2022/06/14 07:37:26;;;;;;;;;;;;;;;;;;5060616;28;20418;-24
2022/06/14 07:39:56;;;;;;;;;;;;;;;;;;5043301;28;19963;-24
2022/06/14 07:42:23;;;;;;;;;;;;;;;;;;5060377;28;19917;-23
2022/06/14 07:44:52;;;;;;;;;;;;;;;;;;5059817;28;20266;-23
2022/06/14 07:47:19;;;;;;;;;;;;;;;;;;5059799;28;19920;-24
2022/06/14 07:49:47;;;;;;;;;;;;;;;;;;5042831;28;19909;-24
2022/06/14 07:52:15;;;;;;;;;;;;;;;;;;5059240;28;19940;-24
2022/06/14 07:54:49;;;;;;;;;;;;;;;;;;5058532;28;20204;-25
2022/06/14 07:57:19;;;;;;;;;;;;;;;;;;5058609;28;19921;-24
2022/06/14 07:59:45;;;;;;;;;;;;;;;;;;5056323;28;20009;-25
2022/06/14 08:02:12;;;;;;;;;;;;;;;;;;5055910;28;20451;-25
2022/06/14 08:04:38;;;;;;;;;;;;;;;;;;5056620;28;19913;-25
2022/06/14 08:07:04;;;;;;;;;;;;;;;;;;5056542;28;20351;-25
2022/06/14 08:09:30;;;;;;;;;;;;;;;;;;5056262;28;19916;-25
2022/06/14 08:11:57;;;;;;;;;;;;;;;;;;5056291;28;19920;-25
2022/06/14 08:14:23;;;;;;;;;;;;;;;;;;5056383;28;20251;-25
2022/06/14 08:16:49;;;;;;;;;;;;;;;;;;5057990;28;19931;-25
2022/06/14 08:25:08;;;;;;;;;;;;;;;;;;5081706;28;19942;-23
2022/06/14 08:30:28;;;;;;;;;;;;;;;;;;5079360;28;19918;-23
2022/06/14 08:33:02;;;;;;;;;;;;;;;;;;5080204;28;19913;-23
2022/06/14 08:35:29;;;;;;;;;;;;;;;;;;5079788;28;20278;-23
2022/06/14 08:38:00;;;;;;;;;;;;;;;;;;5062160;28;19913;-23
2022/06/14 08:40:28;;;;;;;;;;;;;;;;;;5078098;28;19908;-23
2022/06/14 08:42:55;;;;;;;;;;;;;;;;;;5078021;28;19932;-23
2022/06/14 08:45:26;;;;;;;;;;;;;;;;;;5077635;28;19908;-23
2022/06/14 08:48:01;;;;;;;;;;;;;;;;;;5060206;28;19923;-23
2022/06/14 08:50:28;;;;;;;;;;;;;;;;;;5077849;28;20370;-23
2022/06/14 08:52:57;;;;;;;;;;;;;;;;;;5077728;28;20289;-22
2022/06/14 08:55:27;;;;;;;;;;;;;;;;;;5077537;28;19956;-24
2022/06/14 08:57:58;;;;;;;;;;;;;;;;;;5077733;28;19912;-25
2022/06/14 09:00:26;;;;;;;;;;;;;;;;;;5077806;28;20344;-25
2022/06/14 09:02:55;;;;;;;;;;;;;;;;;;5077735;28;19917;-24
2022/06/14 09:05:22;;;;;;;;;;;;;;;;;;5077352;28;19908;-25
2022/06/14 09:07:50;;;;;;;;;;;;;;;;;;5077902;28;19916;-24
2022/06/14 09:10:19;;;;;;;;;;;;;;;;;;5077591;28;19913;-25
2022/06/14 09:12:48;;;;;;;;;;;;;;;;;;5058896;28;20372;-25
2022/06/14 09:15:16;;;;;;;;;;;;;;;;;;5075486;28;19916;-25
2022/06/14 09:17:44;;;;;;;;;;;;;;;;;;5078035;28;19913;-24
2022/06/14 09:20:14;;;;;;;;;;;;;;;;;;5078299;28;19909;-24
2022/06/14 09:22:43;;;;;;;;;;;;;;;;;;5079163;28;19916;-25
2022/06/14 09:25:12;;;;;;;;;;;;;;;;;;5060237;28;19908;-24
2022/06/14 09:33:22;;;;;;;;;;;;;;;;;;5077986;28;19923;-23
2022/06/14 09:35:56;;;;;;;;;;;;;;;;;;5078683;28;19924;-23
2022/06/14 09:38:28;;;;;;;;;;;;;;;;;;5078982;28;19951;-23
2022/06/14 09:40:57;;;;;;;;;;;;;;;;;;5078688;28;19908;-23
2022/06/14 09:43:32;;;;;;;;;;;;;;;;;;5059653;28;19989;-23
2022/06/14 09:46:02;;;;;;;;;;;;;;;;;;5077041;28;19913;-23
2022/06/14 09:48:30;;;;;;;;;;;;;;;;;;5078823;28;19920;-22
2022/06/14 09:51:05;;;;;;;;;;;;;;;;;;5077887;28;19992;-23
2022/06/14 09:53:37;;;;;;;;;;;;;;;;;;5059863;28;19912;-23
2022/06/14 09:56:12;;;;;;;;;;;;;;;;;;5061218;28;19939;-23
2022/06/14 09:58:41;;;;;;;;;;;;;;;;;;5060465;28;19913;-23
2022/06/14 10:01:08;;;;;;;;;;;;;;;;;;5077160;28;20010;-23
2022/06/14 10:03:36;;;;;;;;;;;;;;;;;;5058930;28;19960;-23
2022/06/14 10:06:04;;;;;;;;;;;;;;;;;;5077633;28;19908;-23
2022/06/14 10:08:36;;;;;;;;;;;;;;;;;;5077634;28;19912;-24
2022/06/14 10:11:08;;;;;;;;;;;;;;;;;;5059239;28;19912;-23
2022/06/14 10:13:43;;;;;;;;;;;;;;;;;;5058065;28;19923;-23
2022/06/14 10:16:13;;;;;;;;;;;;;;;;;;5077395;28;19943;-23
2022/06/14 10:18:45;;;;;;;;;;;;;;;;;;5060236;28;19930;-23
2022/06/14 10:29:41;;;;;;;;;;;;;;;;;;5074411;28;20346;-25
2022/06/14 10:32:07;;;;;;;;;;;;;;;;;;5074408;28;19939;-24
2022/06/14 10:34:47;;;;;;;;;;;;;;;;;;5074305;28;20314;-25
2022/06/14 10:37:14;;;;;;;;;;;;;;;;;;5056635;28;19924;-24
2022/06/14 10:42:33;;;;;;;;;;;;;;;;;;5073880;28;19990;-24
2022/06/14 10:45:00;;;;;;;;;;;;;;;;;;5074043;28;19912;-24
2022/06/14 10:47:27;;;;;;;;;;;;;;;;;;5073746;28;19924;-24
2022/06/14 10:50:17;;;;;;;;;;;;;;;;;;5074024;28;19919;-24
2022/06/14 11:01:25;;;;;;;;;;;;;;;;;;5073482;28;20404;-24
2022/06/14 11:06:52;;;;;;;;;;;;;;;;;;5073447;28;19923;-24
2022/06/14 11:12:22;;;;;;;;;;;;;;;;;;5073431;28;19919;-24
2022/06/14 11:15:00;;;;;;;;;;;;;;;;;;5055172;28;20350;-24
2022/06/14 11:17:28;;;;;;;;;;;;;;;;;;5455710;23;19964;-24
2022/06/14 11:19:55;;;;;;;;;;;;;;;;;;5049272;28;19987;-25
2022/06/14 11:22:23;;;;;;;;;;;;;;;;;;5035403;28;19929;-25
2022/06/14 11:24:55;;;;;;;;;;;;;;;;;;5053200;28;20232;-25
2022/06/14 11:27:24;;;;;;;;;;;;;;;;;;5053577;28;19932;-25
2022/06/14 11:29:54;;;;;;;;;;;;;;;;;;5036084;28;19909;-24
2022/06/14 11:32:20;;;;;;;;;;;;;;;;;;5036595;28;19931;-25
2022/06/14 11:34:46;;;;;;;;;;;;;;;;;;5036766;28;19932;-25
2022/06/14 11:37:13;;;;;;;;;;;;;;;;;;5039427;28;19919;-25
2022/06/14 11:39:39;;;;;;;;;;;;;;;;;;5057381;28;19913;-24
2022/06/14 11:42:11;;;;;;;;;;;;;;;;;;5057421;28;19927;-24
2022/06/14 11:47:29;;;;;;;;;;;;;;;;;;5057570;28;19986;-25
2022/06/14 11:49:57;;;;;;;;;;;;;;;;;;5057319;28;19913;-25
2022/06/14 11:52:33;;;;;;;;;;;;;;;;;;5057205;28;20314;-25
2022/06/14 11:57:59;;;;;;;;;;;;;;;;;;5057173;28;19997;-23
2022/06/14 12:03:17;;;;;;;;;;;;;;;;;;5056932;28;19927;-25
2022/06/14 12:08:41;;;;;;;;;;;;;;;;;;5402794;22;19924;-25
2022/06/14 12:11:44;;;;;;;;;;;;;;;;;;5074710;28;19997;-25
2022/06/14 12:13:55;;;;;;;;;;;;;;;;;;5067458;28;19904;-26
2022/06/14 12:22:26;;;;;;;;;;;;;;;;;;5056950;28;19927;-26
2022/06/14 12:27:39;;;;;;;;;;;;;;;;;;5056777;28;20332;-27
2022/06/14 12:30:05;;;;;;;;;;;;;;;;;;5038659;28;19969;-26
2022/06/14 12:32:32;;;;;;;;;;;;;;;;;;5056355;28;19917;-23
2022/06/14 12:34:59;;;;;;;;;;;;;;;;;;5038408;28;20410;-25
2022/06/14 12:37:25;;;;;;;;;;;;;;;;;;5056223;28;19940;-25
2022/06/14 12:39:52;;;;;;;;;;;;;;;;;;5038506;28;19917;-25
2022/06/14 12:42:19;;;;;;;;;;;;;;;;;;5056021;28;20000;-26
2022/06/14 12:45:26;;;;;;;;;;;;;;;;;;5038457;28;19913;-25
2022/06/14 12:58:48;;;;;;;;;;;;;;;;;;5225516;22;19931;-24
2022/06/14 13:04:16;;;;;;;;;;;;;;;;;;5075646;28;20322;-25
2022/06/14 13:06:53;;;;;;;;;;;;;;;;;;5075429;28;19976;-25
2022/06/14 13:09:31;;;;;;;;;;;;;;;;;;5057698;28;19993;-25
2022/06/14 13:14:55;;;;;;;;;;;;;;;;;;5075571;28;19970;-25
2022/06/14 13:31:30;;;;;;;;;;;;;;;;;;5081143;28;19962;-24
2022/06/14 13:39:38;;;;;;;;;;;;;;;;;;5068810;28;19928;-24
2022/06/14 13:42:43;;;;;;;;;;;;;;;;;;5078558;28;19916;-24
2022/06/14 13:57:07;;;;;;;;;;;;;;;;;;5078094;28;19978;-24
2022/06/14 14:02:25;;;;;;;;;;;;;;;;;;5077899;28;20024;-24
2022/06/14 14:07:37;;;;;;;;;;;;;;;;;;5076396;28;19931;-24
2022/06/14 14:18:31;;;;;;;;;;;;;;;;;;5044320;28;20039;-25
2022/06/14 14:20:58;;;;;;;;;;;;;;;;;;5074889;28;20298;-26
2022/06/14 14:29:11;;;;;;;;;;;;;;;;;;5079524;28;19974;-24
2022/06/14 14:31:45;;;;;;;;;;;;;;;;;;5058307;28;20251;-24
2022/06/14 14:39:49;;;;;;;;;;;;;;;;;;5077487;28;19970;-24
2022/06/14 14:42:37;;;;;;;;;;;;;;;;;;5074191;28;19917;-24
2022/06/14 14:45:04;;;;;;;;;;;;;;;;;;5060701;28;19908;-24
2022/06/14 14:47:35;;;;;;;;;;;;;;;;;;5076798;28;19978;-24
2022/06/14 14:50:06;;;;;;;;;;;;;;;;;;5077964;28;19908;-25
2022/06/14 14:52:36;;;;;;;;;;;;;;;;;;5075803;28;20017;-24
2022/06/14 15:06:28;;;;;;;;;;;;;;;;;;5077927;28;20215;-23
2022/06/14 15:08:57;;;;;;;;;;;;;;;;;;5075245;28;19912;-24
2022/06/14 15:11:24;;;;;;;;;;;;;;;;;;5059174;28;20018;-24
2022/06/14 15:13:52;;;;;;;;;;;;;;;;;;5081395;28;19935;-24
2022/06/14 15:24:40;;;;;;;;;;;;;;;;;;4903964;28;20305;-24
2022/06/14 15:27:08;;;;;;;;;;;;;;;;;;5094173;28;19917;-24
2022/06/14 15:29:50;;;;;;;;;;;;;;;;;;5080853;28;20027;-24
2022/06/14 15:32:17;;;;;;;;;;;;;;;;;;5082857;28;19999;-24
2022/06/14 15:34:49;;;;;;;;;;;;;;;;;;5102909;28;19904;-24
2022/06/14 15:37:18;;;;;;;;;;;;;;;;;;5081234;28;20261;-24
2022/06/14 15:45:32;;;;;;;;;;;;;;;;;;5101834;28;19923;-24
2022/06/14 15:48:05;;;;;;;;;;;;;;;;;;5082404;28;19923;-24
2022/06/14 15:53:24;;;;;;;;;;;;;;;;;;5100359;28;19923;-24
2022/06/14 15:55:51;;;;;;;;;;;;;;;;;;5079603;28;20024;-25
2022/06/14 15:58:17;;;;;;;;;;;;;;;;;;5096921;28;19982;-25
2022/06/14 16:00:43;;;;;;;;;;;;;;;;;;5096879;28;19908;-25
2022/06/14 16:03:09;;;;;;;;;;;;;;;;;;5096714;28;19916;-25
2022/06/14 16:05:35;;;;;;;;;;;;;;;;;;5097071;28;19908;-25
2022/06/14 16:08:01;;;;;;;;;;;;;;;;;;5096978;28;19912;-25
2022/06/14 16:10:27;;;;;;;;;;;;;;;;;;5079027;28;19919;-25
2022/06/14 16:12:53;;;;;;;;;;;;;;;;;;5096571;28;19912;-25
2022/06/14 16:15:19;;;;;;;;;;;;;;;;;;5097888;28;19961;-25
2022/06/14 16:17:45;;;;;;;;;;;;;;;;;;5078716;28;19912;-25
2022/06/14 16:20:12;;;;;;;;;;;;;;;;;;5096557;28;20346;-25
2022/06/14 16:22:38;;;;;;;;;;;;;;;;;;5095992;28;19916;-25
2022/06/14 16:25:04;;;;;;;;;;;;;;;;;;5078429;28;19908;-25
2022/06/14 16:27:30;;;;;;;;;;;;;;;;;;5096093;28;19928;-25
2022/06/14 16:29:56;;;;;;;;;;;;;;;;;;5096255;28;19908;-25
2022/06/14 16:32:22;;;;;;;;;;;;;;;;;;5096636;28;19934;-24
2022/06/14 16:34:48;;;;;;;;;;;;;;;;;;5096348;28;20354;-25
2022/06/14 16:37:14;;;;;;;;;;;;;;;;;;5096520;28;20438;-25
2022/06/14 16:39:40;;;;;;;;;;;;;;;;;;5078359;28;20343;-25
2022/06/14 16:42:06;;;;;;;;;;;;;;;;;;5096469;28;19916;-25
2022/06/14 16:44:33;;;;;;;;;;;;;;;;;;5096370;28;19908;-25
2022/06/14 16:46:59;;;;;;;;;;;;;;;;;;5096043;28;19912;-25
2022/06/14 16:49:25;;;;;;;;;;;;;;;;;;5096058;28;19945;-25
2022/06/14 16:51:51;;;;;;;;;;;;;;;;;;5096147;28;19934;-25
2022/06/14 16:54:17;;;;;;;;;;;;;;;;;;5078069;28;19919;-25
2022/06/14 16:56:43;;;;;;;;;;;;;;;;;;5095905;28;19908;-25
2022/06/14 16:59:09;;;;;;;;;;;;;;;;;;5096037;28;19912;-25
2022/06/14 17:01:35;;;;;;;;;;;;;;;;;;5095845;28;19962;-25
2022/06/14 17:04:01;;;;;;;;;;;;;;;;;;5095526;28;19930;-25
2022/06/14 17:06:27;;;;;;;;;;;;;;;;;;5095821;28;19908;-25
2022/06/14 17:08:53;;;;;;;;;;;;;;;;;;5095659;28;19952;-25
2022/06/14 17:11:19;;;;;;;;;;;;;;;;;;5095628;28;19951;-25
2022/06/14 17:13:45;;;;;;;;;;;;;;;;;;5077247;28;19954;-26
2022/06/14 17:16:11;;;;;;;;;;;;;;;;;;5095225;28;19950;-27
2022/06/14 17:18:37;;;;;;;;;;;;;;;;;;5095499;28;20288;-26
2022/06/14 17:21:04;;;;;;;;;;;;;;;;;;5095823;28;19956;-32
2022/06/14 17:23:31;;;;;;;;;;;;;;;;;;5097055;28;19935;-26
2022/06/14 17:31:29;;;;;;;;;;;;;;;;;;5095582;28;19981;-26
2022/06/14 17:33:55;;;;;;;;;;;;;;;;;;5094353;28;19980;-26
2022/06/14 17:39:15;;;;;;;;;;;;;;;;;;5103397;28;19923;-23
2022/06/14 17:41:42;;;;;;;;;;;;;;;;;;5096298;28;20348;-26
2022/06/14 17:44:08;;;;;;;;;;;;;;;;;;5094087;28;19908;-27
2022/06/14 17:46:34;;;;;;;;;;;;;;;;;;5076229;28;20334;-27
2022/06/14 17:49:00;;;;;;;;;;;;;;;;;;5094125;28;19908;-26
2022/06/14 17:51:26;;;;;;;;;;;;;;;;;;5076099;28;19969;-26
2022/06/14 17:53:52;;;;;;;;;;;;;;;;;;5094079;28;20262;-26
2022/06/14 17:56:18;;;;;;;;;;;;;;;;;;5076156;28;19915;-26
2022/06/14 17:58:43;;;;;;;;;;;;;;;;;;5094277;28;19912;-26
2022/06/14 18:01:10;;;;;;;;;;;;;;;;;;5094512;28;19915;-26
2022/06/14 18:03:36;;;;;;;;;;;;;;;;;;5094025;28;19924;-26
2022/06/14 18:06:05;;;;;;;;;;;;;;;;;;5094053;28;19923;-26
2022/06/14 18:08:31;;;;;;;;;;;;;;;;;;5093748;28;20307;-24
2022/06/14 18:10:57;;;;;;;;;;;;;;;;;;5093959;28;19920;-24
2022/06/14 18:13:23;;;;;;;;;;;;;;;;;;5093467;28;19923;-24
2022/06/14 18:15:49;;;;;;;;;;;;;;;;;;5093550;28;19909;-24
2022/06/14 18:18:15;;;;;;;;;;;;;;;;;;5075581;28;19935;-24
2022/06/14 18:20:50;;;;;;;;;;;;;;;;;;5093378;28;19923;-24
2022/06/14 18:23:24;;;;;;;;;;;;;;;;;;5093780;28;19934;-24
2022/06/14 18:25:55;;;;;;;;;;;;;;;;;;5097295;28;19954;-24
2022/06/14 18:28:35;;;;;;;;;;;;;;;;;;5100298;28;19915;-24
2022/06/14 18:31:18;;;;;;;;;;;;;;;;;;5096982;28;19908;-25
2022/06/14 18:33:44;;;;;;;;;;;;;;;;;;5095959;28;20012;-25
2022/06/14 18:36:12;;;;;;;;;;;;;;;;;;5076544;28;19954;-25
2022/06/14 18:38:38;;;;;;;;;;;;;;;;;;5095037;28;19942;-25
2022/06/14 18:41:04;;;;;;;;;;;;;;;;;;5094385;28;19919;-24
2022/06/14 18:43:30;;;;;;;;;;;;;;;;;;5076698;28;19974;-25
2022/06/14 18:45:57;;;;;;;;;;;;;;;;;;5100236;28;19908;-25
2022/06/14 18:48:23;;;;;;;;;;;;;;;;;;5101101;28;20262;-25
2022/06/14 18:50:52;;;;;;;;;;;;;;;;;;5083157;28;19920;-25
2022/06/14 18:53:20;;;;;;;;;;;;;;;;;;5101078;28;20054;-25
2022/06/14 18:55:47;;;;;;;;;;;;;;;;;;5101055;28;20026;-25
2022/06/14 18:58:12;;;;;;;;;;;;;;;;;;5100961;28;19923;-25
2022/06/14 19:00:39;;;;;;;;;;;;;;;;;;5101158;28;20258;-25
2022/06/14 19:03:05;;;;;;;;;;;;;;;;;;5083052;28;19960;-25
2022/06/14 19:05:31;;;;;;;;;;;;;;;;;;5101091;28;19967;-25
2022/06/14 19:07:57;;;;;;;;;;;;;;;;;;5101350;28;20015;-25
2022/06/14 19:10:23;;;;;;;;;;;;;;;;;;5100931;28;19962;-25
2022/06/14 19:13:07;;;;;;;;;;;;;;;;;;5100732;28;20102;-24
2022/06/14 19:15:35;;;;;;;;;;;;;;;;;;5101929;28;19911;-25
2022/06/14 19:18:02;;;;;;;;;;;;;;;;;;5100916;28;20219;-25
2022/06/14 19:20:29;;;;;;;;;;;;;;;;;;5084039;28;19912;-25
2022/06/14 19:22:57;;;;;;;;;;;;;;;;;;5102551;28;19916;-25
2022/06/14 19:25:24;;;;;;;;;;;;;;;;;;5101831;28;19908;-25
2022/06/14 19:27:53;;;;;;;;;;;;;;;;;;5100845;28;19930;-23
2022/06/14 19:30:21;;;;;;;;;;;;;;;;;;5102381;28;19958;-24
2022/06/14 19:32:48;;;;;;;;;;;;;;;;;;5102873;28;19922;-24
2022/06/14 19:35:15;;;;;;;;;;;;;;;;;;5103891;28;19912;-24
2022/06/14 19:37:43;;;;;;;;;;;;;;;;;;5086070;28;20266;-24
2022/06/14 19:40:09;;;;;;;;;;;;;;;;;;5102261;28;19923;-26
2022/06/14 19:42:36;;;;;;;;;;;;;;;;;;5100678;28;20001;-25
2022/06/14 19:45:02;;;;;;;;;;;;;;;;;;5082461;28;20303;-25
2022/06/14 19:47:28;;;;;;;;;;;;;;;;;;5100475;28;20235;-25
2022/06/14 19:52:38;;;;;;;;;;;;;;;;;;5100929;28;19971;-25
2022/06/14 19:57:49;;;;;;;;;;;;;;;;;;5096171;28;19922;-25
2022/06/14 20:00:15;;;;;;;;;;;;;;;;;;5096356;28;19912;-25
2022/06/14 20:02:41;;;;;;;;;;;;;;;;;;5096319;28;19912;-25
2022/06/14 20:05:07;;;;;;;;;;;;;;;;;;5096650;28;20037;-26
2022/06/14 20:07:33;;;;;;;;;;;;;;;;;;5096639;28;19912;-26
2022/06/14 20:09:59;;;;;;;;;;;;;;;;;;5078251;28;20298;-26
2022/06/14 20:12:29;;;;;;;;;;;;;;;;;;5096139;28;20003;-26
2022/06/14 20:14:55;;;;;;;;;;;;;;;;;;5096227;28;19919;-26